Aeroporto :
LOGIN :

Iscrizione | Disclaimer

   EN    FR    IT 

 










Sommario :    VFR   VFR Marginale   IFR   IFR Intensivo   IFR Molto Intensivo
Visibilità : 
Base nubi : 
>= 8 km
>= 3000ft
5 / 8 km
1000 / 3000 ft
1500m / 5 km
500 / 1000 ft
800 / 1500m
200 / 500 ft
< 800m
< 200 ft
Simboli :   Temporali  Nebbia  Neve Forte  Precipitazioni Forti  Vento > 20 kt
SIGMETs :   Varie  Temporali  Ghiacco  Turbolenza  Onda orograficha  Ceneri Vulcaniche







- Altitudine del aeroporto : 3 ft
- Codice IATA : DHR


EHKD - Den Helder De Kooy

ULTIMO METAR :
  • 232025Z AUTO 24002KT 8000 BR OVC230 11/10 Q1015 BLU 23005KT CAVOK

METARs OBSOLETI :
  • 231955Z AUTO 24002KT 9999 OVC250 11/10 Q1015 BLU 23005KT CAVOK
  • 231925Z AUTO 24003KT 9999 OVC240 13/10 Q1015 BLU 23005KT CAVOK
  • 231855Z AUTO 23005KT 9999 OVC250 13/10 Q1015 BLU 23005KT CAVOK
  • 231825Z AUTO 23006KT 190V260 9999 OVC280 14/10 Q1016 BLU 23005KT CAVOK
  • 231755Z AUTO 25006KT 220V280 9999 OVC280 14/10 Q1016 BLU 23005KT CAVOK

TAF TAF EHKD
Valido dal 23 a 17 ore il 24 a 05 ore UTC


231654Z 2317/2405 25005KT CAVOK
BECMG 2319/2321 19006KT
Nessun NOTAM noto per questo aeroporto.



MetMap, La meteo Aeronautica in un colpo d'occhio ! - Copyright ORBIFLY Dicembre 2007 - Disclaimer

ORBIFLY MET'MAP TEAM :

Programmazione e sviluppo : Alexandra Zaïnal
Concezione e sviluppo : Baudouin d'Aumeries
Co-Programmazione e sviluppo : Marc-Olivier Méhu
Supporto tecnico e logistico : Manuel Goepfert
Aiuto per la traduzione : Arnaldo La Scala

Contatto : metmap@orbifly.com




FONTI E CREDITI :

   NOAA